createdAt,value
2019-05-09T00:01:16.159Z,10.90
2019-05-09T00:03:44.751Z,11.00
2019-05-09T00:06:13.564Z,11.00
2019-05-09T00:08:44.178Z,11.10
2019-05-09T00:11:14.545Z,11.10
2019-05-09T00:13:43.524Z,11.10
2019-05-09T00:16:14.229Z,11.20
2019-05-09T00:18:43.904Z,11.20
2019-05-09T00:21:16.680Z,11.10
2019-05-09T00:23:44.583Z,11.00
2019-05-09T00:26:13.379Z,11.00
2019-05-09T00:28:44.347Z,11.00
2019-05-09T00:31:38.222Z,11.00
2019-05-09T00:34:11.108Z,10.90
2019-05-09T00:36:39.327Z,10.60
2019-05-09T00:39:08.017Z,10.50
2019-05-09T00:41:36.284Z,10.40
2019-05-09T00:44:10.610Z,10.20
2019-05-09T00:47:13.524Z,10.10
2019-05-09T00:49:43.485Z,10.00
2019-05-09T00:52:13.544Z,9.90
2019-05-09T00:54:43.660Z,9.90
2019-05-09T00:57:33.460Z,10.00
2019-05-09T01:00:04.043Z,10.00
2019-05-09T01:02:34.023Z,10.00
2019-05-09T01:05:04.185Z,10.00
2019-05-09T01:07:33.654Z,10.00
2019-05-09T01:10:03.990Z,10.00
2019-05-09T01:12:31.202Z,10.10
2019-05-09T01:14:58.939Z,10.10
2019-05-09T01:17:27.143Z,10.20
2019-05-09T01:19:56.114Z,10.20
2019-05-09T01:22:24.191Z,10.30
2019-05-09T01:24:53.386Z,10.40
2019-05-09T01:27:23.220Z,10.40
2019-05-09T01:29:50.749Z,10.40
2019-05-09T01:32:26.261Z,10.40
2019-05-09T01:34:54.460Z,10.40
2019-05-09T01:37:23.743Z,10.40
2019-05-09T01:39:53.426Z,10.50
2019-05-09T01:42:23.310Z,10.60
2019-05-09T01:44:53.310Z,10.60
2019-05-09T01:47:23.522Z,10.90
2019-05-09T01:49:53.849Z,11.10
2019-05-09T01:52:23.208Z,11.20
2019-05-09T01:54:51.111Z,11.20
2019-05-09T01:57:23.117Z,11.20
2019-05-09T01:59:53.117Z,11.30
2019-05-09T02:02:20.324Z,11.30
2019-05-09T02:04:48.743Z,11.40
2019-05-09T02:07:16.889Z,11.40
2019-05-09T02:09:45.320Z,11.40
2019-05-09T02:12:14.177Z,11.40
2019-05-09T02:14:49.227Z,11.50
2019-05-09T02:17:35.203Z,11.70
2019-05-09T02:20:04.051Z,11.70
2019-05-09T02:22:35.054Z,11.70
2019-05-09T02:25:06.270Z,11.70
2019-05-09T02:27:34.975Z,11.70
2019-05-09T02:30:05.760Z,11.80
2019-05-09T02:32:34.808Z,11.80
2019-05-09T02:35:04.882Z,11.80
2019-05-09T02:37:32.930Z,11.80
2019-05-09T02:40:01.225Z,11.80
2019-05-09T02:42:29.081Z,11.80
2019-05-09T02:44:59.493Z,11.80
2019-05-09T02:47:29.005Z,11.80
2019-05-09T02:49:58.849Z,11.90
2019-05-09T02:52:28.683Z,11.90
2019-05-09T02:54:58.333Z,11.90
2019-05-09T02:57:29.248Z,11.90
2019-05-09T03:00:28.842Z,11.90
2019-05-09T03:03:13.716Z,12.00
2019-05-09T03:05:41.443Z,12.00
2019-05-09T03:08:09.787Z,12.00
2019-05-09T03:10:38.084Z,12.10
2019-05-09T03:13:19.414Z,12.10
2019-05-09T03:15:49.341Z,12.10
2019-05-09T03:18:39.995Z,12.10
2019-05-09T03:21:19.059Z,12.20
2019-05-09T03:23:48.904Z,12.10
2019-05-09T03:26:20.727Z,12.10
2019-05-09T03:29:04.030Z,12.10
2019-05-09T03:31:40.570Z,12.10
2019-05-09T03:34:11.091Z,12.20
2019-05-09T03:36:39.223Z,12.20
2019-05-09T03:39:08.713Z,12.20
2019-05-09T03:41:39.334Z,12.20
2019-05-09T03:44:07.378Z,12.20
2019-05-09T03:46:48.804Z,12.20
2019-05-09T03:49:18.000Z,12.20
2019-05-09T03:51:48.248Z,12.10
2019-05-09T03:54:18.168Z,12.10
2019-05-09T03:56:50.017Z,12.10
2019-05-09T03:59:18.789Z,12.20
2019-05-09T04:01:58.775Z,12.20
2019-05-09T04:04:28.148Z,12.20
2019-05-09T04:06:58.111Z,12.20
2019-05-09T04:09:27.330Z,12.20
2019-05-09T04:12:00.195Z,12.20
2019-05-09T04:14:29.427Z,12.10
2019-05-09T04:16:57.695Z,12.10
2019-05-09T04:19:27.562Z,12.10
2019-05-09T04:21:57.574Z,12.10
2019-05-09T04:24:27.934Z,12.20
2019-05-09T04:27:10.832Z,12.20
2019-05-09T04:29:39.664Z,12.20
2019-05-09T04:32:07.995Z,12.20
2019-05-09T04:34:38.091Z,12.20
2019-05-09T04:37:11.611Z,12.10
2019-05-09T04:39:38.687Z,12.20
2019-05-09T04:42:09.972Z,12.20
2019-05-09T04:44:43.823Z,12.20
2019-05-09T04:47:11.726Z,12.20
2019-05-09T04:49:43.809Z,12.20
2019-05-09T04:52:09.107Z,12.20
2019-05-09T04:54:38.414Z,12.20
2019-05-09T04:57:07.810Z,12.20
2019-05-09T04:59:37.380Z,12.10
2019-05-09T05:02:24.948Z,12.10
2019-05-09T05:04:53.031Z,12.20
2019-05-09T05:07:21.396Z,12.20
2019-05-09T05:09:49.852Z,12.10
2019-05-09T05:12:18.663Z,12.20
2019-05-09T05:14:47.657Z,12.20
2019-05-09T05:17:17.778Z,12.20
2019-05-09T05:19:47.644Z,12.20
2019-05-09T05:22:28.339Z,12.30
2019-05-09T05:24:59.816Z,12.30
2019-05-09T05:27:27.943Z,12.30
2019-05-09T05:29:58.112Z,12.30
2019-05-09T05:32:32.067Z,12.30
2019-05-09T05:35:07.934Z,12.30
2019-05-09T05:37:38.694Z,12.30
2019-05-09T05:40:07.766Z,12.30
2019-05-09T05:42:38.811Z,12.30
2019-05-09T05:45:07.810Z,12.30
2019-05-09T05:48:10.653Z,12.30
2019-05-09T05:50:38.404Z,12.30
2019-05-09T05:53:07.970Z,12.30
2019-05-09T05:55:37.982Z,12.40
2019-05-09T05:58:08.400Z,12.40
2019-05-09T06:00:37.741Z,12.40
2019-05-09T06:03:08.553Z,12.40
2019-05-09T06:05:38.325Z,12.40
2019-05-09T06:08:08.176Z,12.50
2019-05-09T06:10:37.821Z,12.60
2019-05-09T06:13:07.928Z,12.60
2019-05-09T06:15:37.957Z,12.70
2019-05-09T06:18:07.937Z,12.70
2019-05-09T06:20:38.566Z,12.80
2019-05-09T06:23:08.454Z,12.90
2019-05-09T06:25:38.946Z,13.10
2019-05-09T06:28:07.663Z,13.10
2019-05-09T06:30:40.959Z,13.10
2019-05-09T06:33:08.607Z,13.10
2019-05-09T06:35:37.903Z,13.10
2019-05-09T06:38:07.930Z,13.10
2019-05-09T06:40:38.171Z,13.20
2019-05-09T06:43:19.302Z,13.20
2019-05-09T06:46:08.158Z,13.20
2019-05-09T06:48:39.042Z,13.20
2019-05-09T06:51:07.444Z,13.20
2019-05-09T06:53:38.055Z,13.20
2019-05-09T06:56:07.421Z,13.20
2019-05-09T06:58:38.333Z,13.10
2019-05-09T07:01:28.534Z,13.20
2019-05-09T07:04:01.138Z,13.10
2019-05-09T07:06:50.979Z,13.10
2019-05-09T07:09:31.781Z,13.10
2019-05-09T07:12:01.686Z,13.10
2019-05-09T07:14:38.364Z,13.10
2019-05-09T07:17:04.079Z,13.10
2019-05-09T07:19:32.735Z,13.10
2019-05-09T07:22:22.499Z,13.10
2019-05-09T07:25:06.671Z,13.10
2019-05-09T07:27:31.805Z,13.10
2019-05-09T07:30:03.690Z,13.10
2019-05-09T07:32:39.366Z,13.10
2019-05-09T07:35:08.796Z,13.10
2019-05-09T07:37:37.993Z,13.10
2019-05-09T07:40:08.337Z,13.20
2019-05-09T07:42:43.880Z,13.10
2019-05-09T07:45:12.413Z,13.20
2019-05-09T07:47:40.873Z,13.20
2019-05-09T07:50:09.650Z,13.20
2019-05-09T07:52:38.794Z,13.30
2019-05-09T07:55:08.868Z,13.20
2019-05-09T07:57:45.605Z,13.20
2019-05-09T08:00:08.221Z,13.20
2019-05-09T08:02:42.192Z,13.20
2019-05-09T08:05:19.780Z,13.20
2019-05-09T08:07:52.614Z,13.20
2019-05-09T08:10:23.637Z,13.10
2019-05-09T08:12:58.544Z,13.20
2019-05-09T08:15:30.935Z,13.20
2019-05-09T08:18:04.637Z,13.30
2019-05-09T08:20:40.776Z,13.20
2019-05-09T08:23:18.056Z,13.20
2019-05-09T08:25:49.586Z,13.20
2019-05-09T08:28:21.699Z,13.20
2019-05-09T08:30:58.487Z,13.30
2019-05-09T08:33:29.410Z,13.30
2019-05-09T08:36:04.302Z,13.30
2019-05-09T08:38:32.042Z,13.20
2019-05-09T08:41:09.978Z,13.20
2019-05-09T08:43:40.474Z,13.20
2019-05-09T08:46:09.614Z,13.20
2019-05-09T08:48:40.579Z,13.20
2019-05-09T08:51:23.170Z,13.20
2019-05-09T08:53:51.004Z,13.30
2019-05-09T08:56:18.728Z,13.40
2019-05-09T08:58:48.487Z,13.40
2019-05-09T09:01:27.479Z,13.60
2019-05-09T09:03:48.284Z,13.70
2019-05-09T09:06:18.205Z,14.00
2019-05-09T09:08:48.120Z,14.30
2019-05-09T09:11:15.835Z,14.60
2019-05-09T09:13:43.897Z,14.70
2019-05-09T09:16:18.823Z,14.80
2019-05-09T09:18:41.724Z,14.90
2019-05-09T09:21:09.886Z,14.90
2019-05-09T09:23:43.889Z,14.90
2019-05-09T09:26:08.234Z,14.90
2019-05-09T09:28:39.149Z,14.90
2019-05-09T09:31:08.120Z,14.90
2019-05-09T09:33:37.635Z,15.00
2019-05-09T09:36:05.521Z,15.20
2019-05-09T09:38:39.400Z,15.50
2019-05-09T09:41:08.102Z,16.00
2019-05-09T09:43:38.168Z,16.10
2019-05-09T09:46:11.824Z,16.00
2019-05-09T09:48:35.310Z,15.60
2019-05-09T09:51:04.094Z,15.60
2019-05-09T09:53:40.650Z,15.60
2019-05-09T09:56:09.186Z,15.50
2019-05-09T09:58:38.464Z,15.40
2019-05-09T10:01:28.701Z,15.40
2019-05-09T10:04:19.753Z,15.40
2019-05-09T10:06:38.975Z,15.40
2019-05-09T10:09:09.402Z,15.40
2019-05-09T10:11:37.213Z,15.20
2019-05-09T10:14:07.730Z,15.20
2019-05-09T10:16:47.624Z,15.30
2019-05-09T10:19:23.367Z,15.40
2019-05-09T10:21:53.422Z,15.80
2019-05-09T10:24:21.102Z,16.20
2019-05-09T10:27:09.074Z,16.30
2019-05-09T10:29:38.851Z,16.20
2019-05-09T10:32:10.220Z,16.40
2019-05-09T10:34:37.955Z,16.50
2019-05-09T10:37:07.557Z,16.50
2019-05-09T10:39:37.931Z,16.60
2019-05-09T10:42:11.622Z,16.80
2019-05-09T10:44:45.560Z,17.10
2019-05-09T10:47:20.478Z,17.60
2019-05-09T10:49:48.754Z,18.00
2019-05-09T10:52:18.239Z,18.60
2019-05-09T10:54:46.801Z,18.90
2019-05-09T10:57:14.879Z,19.00
2019-05-09T10:59:43.092Z,19.30
2019-05-09T11:02:11.268Z,19.30
2019-05-09T11:04:42.924Z,19.10
2019-05-09T11:07:09.474Z,18.50
2019-05-09T11:09:39.078Z,18.10
2019-05-09T11:12:07.869Z,18.20
2019-05-09T11:14:37.526Z,18.20
2019-05-09T11:17:14.129Z,18.50
2019-05-09T11:19:35.812Z,18.70
2019-05-09T11:22:25.590Z,19.10
2019-05-09T11:24:53.634Z,19.60
2019-05-09T11:27:21.812Z,20.30
2019-05-09T11:29:49.955Z,20.60
2019-05-09T11:32:17.976Z,21.00
2019-05-09T11:34:48.433Z,20.70
2019-05-09T11:37:16.601Z,20.70
2019-05-09T11:39:44.325Z,21.10
2019-05-09T11:42:12.427Z,21.40
2019-05-09T11:44:40.435Z,21.00
2019-05-09T11:47:27.075Z,20.20
2019-05-09T11:49:39.170Z,19.70
2019-05-09T11:52:08.444Z,19.30
2019-05-09T11:54:39.061Z,19.10
2019-05-09T11:57:07.612Z,19.10
2019-05-09T11:59:37.899Z,19.20
2019-05-09T12:02:08.171Z,19.20
2019-05-09T12:04:37.985Z,19.40
2019-05-09T12:07:07.944Z,19.50
2019-05-09T12:09:35.277Z,19.40
2019-05-09T12:12:03.241Z,19.40
2019-05-09T12:14:31.516Z,19.10
2019-05-09T12:16:59.866Z,18.80
2019-05-09T12:19:29.497Z,18.60
2019-05-09T12:21:58.484Z,18.40
2019-05-09T12:24:26.503Z,18.20
2019-05-09T12:26:54.602Z,18.10
2019-05-09T12:29:28.762Z,18.00
2019-05-09T12:32:03.479Z,18.00
2019-05-09T12:34:35.430Z,17.90
2019-05-09T12:37:09.637Z,17.90
2019-05-09T12:39:55.762Z,17.80
2019-05-09T12:42:23.552Z,17.60
2019-05-09T12:44:51.338Z,17.60
2019-05-09T12:47:20.265Z,17.30
2019-05-09T12:49:49.875Z,17.00
2019-05-09T12:52:18.597Z,17.00
2019-05-09T12:54:48.330Z,17.10
2019-05-09T12:57:18.917Z,17.20
2019-05-09T12:59:51.614Z,17.50
2019-05-09T13:02:17.646Z,17.70
2019-05-09T13:04:44.971Z,18.10
2019-05-09T13:07:13.153Z,18.30
2019-05-09T13:09:41.117Z,18.40
2019-05-09T13:12:08.868Z,18.20
2019-05-09T13:14:38.000Z,18.10
2019-05-09T13:17:29.897Z,18.00
2019-05-09T13:19:58.650Z,17.80
2019-05-09T13:22:28.552Z,18.00
2019-05-09T13:24:58.785Z,18.20
2019-05-09T13:27:28.629Z,18.50
2019-05-09T13:29:56.352Z,18.70
2019-05-09T13:32:24.067Z,18.80
2019-05-09T13:34:52.173Z,18.70
2019-05-09T13:37:20.329Z,18.50
2019-05-09T13:39:48.471Z,18.30
2019-05-09T13:42:19.589Z,18.20
2019-05-09T13:44:47.542Z,18.00
2019-05-09T13:47:17.972Z,17.70
2019-05-09T13:49:45.584Z,17.60
2019-05-09T13:52:13.701Z,17.50
2019-05-09T13:54:42.021Z,17.40
2019-05-09T13:57:09.933Z,17.30
2019-05-09T13:59:37.935Z,17.30
2019-05-09T14:02:06.460Z,17.60
2019-05-09T14:04:34.534Z,17.70
2019-05-09T14:07:02.680Z,18.00
2019-05-09T14:09:30.443Z,18.20
2019-05-09T14:11:58.897Z,18.50
2019-05-09T14:14:34.182Z,18.80
2019-05-09T14:17:08.287Z,18.90
2019-05-09T14:19:45.023Z,18.80
2019-05-09T14:22:08.213Z,18.90
2019-05-09T14:24:36.410Z,18.80
2019-05-09T14:27:08.741Z,18.80
2019-05-09T14:29:38.358Z,18.90
2019-05-09T14:32:09.516Z,19.00
2019-05-09T14:34:42.355Z,19.00
2019-05-09T14:37:09.876Z,19.20
2019-05-09T14:39:54.955Z,19.10
2019-05-09T14:42:12.077Z,19.00
2019-05-09T14:44:41.082Z,18.70
2019-05-09T14:47:09.449Z,18.70
2019-05-09T14:49:43.979Z,18.60
2019-05-09T14:52:08.967Z,18.70
2019-05-09T14:54:39.192Z,18.70
2019-05-09T14:57:09.611Z,18.70
2019-05-09T14:59:38.789Z,18.90
2019-05-09T15:02:11.024Z,18.80
2019-05-09T15:04:44.132Z,18.60
2019-05-09T15:07:14.818Z,18.30
2019-05-09T15:09:42.560Z,18.20
2019-05-09T15:12:11.143Z,18.20
2019-05-09T15:14:38.915Z,18.00
2019-05-09T15:17:12.690Z,17.90
2019-05-09T15:19:56.411Z,17.80
2019-05-09T15:22:11.246Z,17.80
2019-05-09T15:24:47.634Z,17.70
2019-05-09T15:27:17.549Z,17.70
2019-05-09T15:29:45.005Z,17.50
2019-05-09T15:32:13.131Z,17.30
2019-05-09T15:34:42.368Z,17.20
2019-05-09T15:37:10.691Z,17.20
2019-05-09T15:39:38.801Z,17.20
2019-05-09T15:42:07.416Z,17.10
2019-05-09T15:44:35.302Z,16.80
2019-05-09T15:47:13.142Z,16.40
2019-05-09T15:49:40.963Z,16.10
2019-05-09T15:52:18.182Z,16.00
2019-05-09T15:54:53.235Z,16.00
2019-05-09T15:57:21.756Z,16.20
2019-05-09T15:59:49.540Z,16.40
2019-05-09T16:02:19.084Z,16.60
2019-05-09T16:04:47.520Z,16.80
2019-05-09T16:07:17.765Z,17.00
2019-05-09T16:09:45.383Z,17.10
2019-05-09T16:12:14.293Z,17.20
2019-05-09T16:14:43.132Z,17.50
2019-05-09T16:17:10.963Z,17.60
2019-05-09T16:19:38.738Z,17.50
2019-05-09T16:22:11.158Z,17.50
2019-05-09T16:24:40.534Z,17.50
2019-05-09T16:27:13.249Z,17.60
2019-05-09T16:29:41.552Z,17.70
2019-05-09T16:32:09.347Z,17.70
2019-05-09T16:34:39.206Z,17.70
2019-05-09T16:37:10.948Z,17.70
2019-05-09T16:39:39.072Z,17.60
2019-05-09T16:42:07.202Z,17.50
2019-05-09T16:44:37.798Z,17.40
2019-05-09T16:47:08.221Z,17.40
2019-05-09T16:49:35.265Z,17.50
2019-05-09T16:52:03.683Z,17.50
2019-05-09T16:54:35.773Z,17.40
2019-05-09T16:57:04.144Z,17.30
2019-05-09T16:59:32.665Z,17.20
2019-05-09T17:02:16.855Z,17.20
2019-05-09T17:04:30.541Z,17.10
2019-05-09T17:06:58.414Z,17.20
2019-05-09T17:09:28.595Z,17.10
2019-05-09T17:11:57.703Z,17.00
2019-05-09T17:14:28.379Z,16.90
2019-05-09T17:16:59.602Z,16.70
2019-05-09T17:19:29.124Z,16.60
2019-05-09T17:22:09.981Z,16.60
2019-05-09T17:24:39.852Z,16.50
2019-05-09T17:27:08.685Z,16.30
2019-05-09T17:29:39.700Z,16.10
2019-05-09T17:32:10.080Z,16.00
2019-05-09T17:34:42.401Z,15.90
2019-05-09T17:37:10.567Z,15.80
2019-05-09T17:39:38.908Z,15.70
2019-05-09T17:42:07.634Z,15.40
2019-05-09T17:44:35.513Z,15.10
2019-05-09T17:47:03.693Z,15.00
2019-05-09T17:49:31.511Z,14.80
2019-05-09T17:51:59.897Z,14.70
2019-05-09T17:54:28.789Z,14.60
2019-05-09T17:56:57.325Z,14.60
2019-05-09T17:59:25.105Z,14.50
2019-05-09T18:01:52.862Z,14.50
2019-05-09T18:04:20.668Z,14.40
2019-05-09T18:06:52.142Z,14.40
2019-05-09T18:09:20.672Z,14.50
2019-05-09T18:11:48.887Z,14.50
2019-05-09T18:14:18.435Z,14.50
2019-05-09T18:16:47.785Z,14.50
2019-05-09T18:19:17.841Z,14.50
2019-05-09T18:21:50.726Z,14.50
2019-05-09T18:24:17.623Z,14.50
2019-05-09T18:26:47.443Z,14.40
2019-05-09T18:29:17.932Z,14.50
2019-05-09T18:32:03.191Z,14.50
2019-05-09T18:34:31.388Z,14.50
2019-05-09T18:36:59.441Z,14.50
2019-05-09T18:39:27.834Z,14.50
2019-05-09T18:41:57.782Z,14.40
2019-05-09T18:44:27.569Z,14.40
2019-05-09T18:46:57.526Z,14.40
2019-05-09T18:49:25.706Z,14.30
2019-05-09T18:52:03.183Z,14.30
2019-05-09T18:54:25.212Z,14.30
2019-05-09T18:56:54.137Z,14.20
2019-05-09T18:59:22.793Z,14.30
2019-05-09T19:01:50.982Z,14.20
2019-05-09T19:04:19.111Z,14.10
2019-05-09T19:06:47.912Z,14.10
2019-05-09T19:09:16.472Z,14.10
2019-05-09T19:11:58.228Z,14.00
2019-05-09T19:14:37.517Z,13.90
2019-05-09T19:17:45.621Z,13.90
2019-05-09T19:21:00.486Z,13.90
2019-05-09T19:23:38.689Z,13.80
2019-05-09T19:26:32.971Z,13.80
2019-05-09T19:29:15.526Z,13.80
2019-05-09T19:32:01.327Z,13.90
2019-05-09T19:34:30.509Z,13.80
2019-05-09T19:37:21.589Z,13.80
2019-05-09T19:39:59.190Z,13.80
2019-05-09T19:42:34.400Z,13.80
2019-05-09T19:45:06.874Z,13.80
2019-05-09T19:47:56.262Z,13.80
2019-05-09T19:50:23.663Z,13.80
2019-05-09T19:52:53.543Z,13.70
2019-05-09T19:55:21.890Z,13.80
2019-05-09T19:57:51.324Z,13.70
2019-05-09T20:00:19.338Z,13.70
2019-05-09T20:02:49.438Z,13.70
2019-05-09T20:05:17.306Z,13.70
2019-05-09T20:07:45.417Z,13.70
2019-05-09T20:10:32.151Z,13.70
2019-05-09T20:13:28.425Z,13.70
2019-05-09T20:15:56.443Z,13.60
2019-05-09T20:18:24.137Z,13.50
2019-05-09T20:20:52.657Z,13.50
2019-05-09T20:23:20.433Z,13.60
2019-05-09T20:25:48.568Z,13.50
2019-05-09T20:28:16.260Z,13.50
2019-05-09T20:30:43.994Z,13.60
2019-05-09T20:33:11.703Z,13.60
2019-05-09T20:35:39.343Z,13.60
2019-05-09T20:38:07.500Z,13.60
2019-05-09T20:40:35.534Z,13.50
2019-05-09T20:43:03.754Z,13.50
2019-05-09T20:45:31.481Z,13.60
2019-05-09T20:47:59.227Z,13.60
2019-05-09T20:50:26.963Z,13.70
2019-05-09T20:53:08.601Z,13.70
2019-05-09T20:55:24.923Z,13.70
2019-05-09T20:57:53.463Z,13.70
2019-05-09T21:00:21.354Z,13.70
2019-05-09T21:02:49.363Z,13.70
2019-05-09T21:05:17.574Z,13.60
2019-05-09T21:07:45.297Z,13.60
2019-05-09T21:10:13.027Z,13.50
2019-05-09T21:12:41.078Z,13.50
2019-05-09T21:15:09.324Z,13.50
2019-05-09T21:17:37.388Z,13.50
2019-05-09T21:20:05.680Z,13.50
2019-05-09T21:22:33.703Z,13.40
2019-05-09T21:25:01.444Z,13.40
2019-05-09T21:27:29.163Z,13.40
2019-05-09T21:29:57.256Z,13.30
2019-05-09T21:32:25.366Z,13.30
2019-05-09T21:34:53.479Z,13.20
2019-05-09T21:37:21.632Z,13.00
2019-05-09T21:39:49.394Z,12.80
2019-05-09T21:42:18.096Z,12.70
2019-05-09T21:44:45.827Z,12.60
2019-05-09T21:47:13.911Z,12.50
2019-05-09T21:49:42.011Z,12.40
2019-05-09T21:52:10.037Z,12.30
2019-05-09T21:54:38.127Z,12.20
2019-05-09T21:57:07.536Z,12.10
2019-05-09T21:59:35.424Z,12.00
2019-05-09T22:02:03.339Z,11.90
2019-05-09T22:04:31.760Z,11.80
2019-05-09T22:07:00.042Z,11.70
2019-05-09T22:09:27.753Z,11.60
2019-05-09T22:11:55.546Z,11.60
2019-05-09T22:14:23.861Z,11.50
2019-05-09T22:16:52.532Z,11.40
2019-05-09T22:19:20.271Z,11.50
2019-05-09T22:21:47.983Z,11.40
2019-05-09T22:24:15.718Z,11.40
2019-05-09T22:26:44.032Z,11.40
2019-05-09T22:29:12.710Z,11.30
2019-05-09T22:31:40.982Z,11.40
2019-05-09T22:34:08.815Z,11.30
2019-05-09T22:36:36.922Z,11.30
2019-05-09T22:39:06.455Z,11.30
2019-05-09T22:41:34.263Z,11.20
2019-05-09T22:44:02.440Z,11.20
2019-05-09T22:46:31.046Z,11.10
2019-05-09T22:48:58.769Z,11.10
2019-05-09T22:51:26.548Z,11.10
2019-05-09T22:53:54.331Z,11.10
2019-05-09T22:56:22.548Z,11.10
2019-05-09T22:58:50.314Z,11.20
2019-05-09T23:01:18.115Z,11.30
2019-05-09T23:03:46.650Z,11.30
2019-05-09T23:06:14.435Z,11.30
2019-05-09T23:08:42.989Z,11.30
2019-05-09T23:11:11.131Z,11.30
2019-05-09T23:13:53.894Z,11.30
2019-05-09T23:16:23.425Z,11.30
2019-05-09T23:18:51.261Z,11.40
2019-05-09T23:21:19.547Z,11.30
2019-05-09T23:23:56.740Z,11.20
2019-05-09T23:26:24.919Z,11.20
2019-05-09T23:28:53.140Z,11.20
2019-05-09T23:31:49.812Z,11.20
2019-05-09T23:34:18.317Z,11.20
2019-05-09T23:36:46.040Z,11.20
2019-05-09T23:39:18.121Z,11.20
2019-05-09T23:41:46.411Z,11.10
2019-05-09T23:44:14.467Z,11.10
2019-05-09T23:46:42.771Z,11.10
2019-05-09T23:49:10.523Z,11.20
2019-05-09T23:51:47.897Z,11.20
2019-05-09T23:54:45.307Z,11.20
2019-05-09T23:57:23.985Z,11.30
